Ana Sayfa
METAR-TAF:

METAR-TAF

Havaalanları :

Cengiz Han Uluslararası Havalimanı

Ulan Batur, Moğolistan

Enlem: 47-55N, Boylam: 106-52E, yükseklik: 1306 m

Güncel hava durumu gözlemi

Rapor saat 00:00 UTC de 26 dakika önce yapıldı.
Rüzgar değişken yönden 2 kt
Sıcaklık -26°C
Nem 69%
Basınç 1020 hPa
Görüş mesafesi: 8000 m

METAR: ZMUB 210000Z VRB01MPS 8000NW NSC M26/M30 Q1020 NOSIG RMK QFE657.6 72 NW MO

Saat: 08:26 (00:26 UTC)

Tahmin

Rapor saat 22:40 UTC de 1 saat ve 46 dakika önce yapıldı.
Ayın 21'si saat 00 UTC'den ayın 22'si saat 06 UTC'ye kadar geçerli Tahmin
Rüzgar değişken yönden 4 kt
Görüş mesafesi: 6000 m
10000 ft yükseklikte parçalı bulutlu
Dönüşüyor
ayın 21'si saat 04 UTC'den ayın 21'si saat 06 UTC'ye kadar
Görüş mesafesi 10 km veya daha fazla
Dönüşüyor
ayın 21'si saat 21 UTC'den ayın 21'si saat 23 UTC'ye kadar
Görüş mesafesi: 6000 m

TAF: ZMUB 202240Z 2100/2206 VRB02MPS 6000 SCT100 TXM10/2107Z TNM25/2123Z BECMG 2104/2106 9999 NSW BECMG 2121/2123 6000

4.000'den fazla havaalanı için hava durumu gözlemleri ve tahminleri (METAR ve TAF raporları).

Kullanılabilir istasyonlar harita üzerinde sarı ve kırmızı noktalarla gösterilir.

İstasyonun adını görmek için fareyi noktanın üzerinde gezdirin.

Sonrasında hava gözlem ve tahminlerini görmek için tıklayın.

Haritayı değiştirmek için: yaklaştırmak için siyah artı işaretli yeşil düğmeye ve uzaklaştırmak için de eksi işaretli düğmeye hızla tıklayın; bitişik haritalar için yeşil okları kullanın.


METAR-TAF: